To NAV CANADA Home Page Login to a new session Search on AWWS site Feedback and Comments Disclaimer Vers la page française équivalente Tips FAQ What's new on the site To the Forecasts and Observations / NOTAM section To "File a Flight Plan" website Publications and other links Update of the User's profile FIC Telephone Numbers My Weather Data Folder Route Weather Data Regional Weather Data Local Weather Data To the Forecasts and Observations / NOTAM section
Request Generated 02/23/2017 at 20:46:48 UTC . Weather information available at that time is displayed.

METAR/TAF

PAULATUK/PAULATUK (NORA ALIQATCHIALUK RUBEN)/NT    

METAR CYPC 232000Z 28015KT 6SM -SN SCT007 OVC030 M22/M26 A3049 RMK
SC4SC4 VIS 3 N SLP325=
SPECI CYPC 231938Z 28014KT 6SM -SN BKN007 OVC030 M22/M25 A3048 RMK
SC5SC3 SLP324=
METAR CYPC 231900Z 28012KT 6SM -SN DRSN BKN007 OVC030 M22/M25 A3046
RMK SC5SC3 VIS 2 N SLP319=
METAR CYPC 231800Z 29015KT 2SM -SN DRSN BKN007 OVC010 M21/M24 A3045
RMK SC6SC2 SLP314=

TAF AMD CYPC 232005Z 2320/2324 28015KT 6SM -SN SCT007 OVC030 TEMPO
2320/2321 2SM -SN BKN007 OVC030
FM232100 28015KT P6SM SCT010 BKN030 TEMPO 2321/2324 6SM -SN
BKN008 BKN030
RMK NXT FCST WILL BE ISSUED AT 241545Z=
Your time UTC time
Weather data provided by Environment Canada and NAV CANADA